This is the latest recevied weather packets stored in our database for station/object EPGD. If no packets are shown the sender has not sent any weather packets the latest 10 day(s).
| Time | Temp. | Humidity | Pressure | Rain* | Wind** | Luminosity | Snow |
|---|---|---|---|---|---|---|---|
| 1777797303 | 22.78° C | 23% | 1013 hPa | - | - | - | - |
| 1777795504 | 21.67° C | 26% | 1014 hPa | - | - | - | - |
| 1777793704 | 21.67° C | 28% | 1014 hPa | - | - | - | - |
| 1777791904 | 20° C | 32% | 1014 hPa | - | - | - | - |
| 1777790104 | 18.89° C | 34% | 1014 hPa | - | - | - | - |
| 1777788304 | 17.78° C | 36% | 1014 hPa | - | - | - | - |
| 1777786503 | 16.67° C | 39% | 1014 hPa | - | - | - | - |
| 1777784704 | 15.56° C | 41% | 1014 hPa | - | - | - | - |
| 1777782904 | 15.56° C | 38% | 1014 hPa | - | - | - | - |
| 1777781104 | 15.56° C | 38% | 1014 hPa | - | - | - | - |
| 1777779304 | 15.56° C | 38% | 1014 hPa | - | - | - | - |
| 1777777504 | 15.56° C | 38% | 1014 hPa | - | - | - | - |
| 1777775703 | 15.56° C | 38% | 1014 hPa | - | - | - | - |
| 1777773904 | 15.56° C | 41% | 1015 hPa | - | - | - | - |
| 1777772104 | 15.56° C | 41% | 1015 hPa | - | - | - | - |
| 1777770304 | 15.56° C | 41% | 1015 hPa | - | - | - | - |
| 1777768503 | 15.56° C | 41% | 1015 hPa | - | - | - | - |
| 1777766703 | 15° C | 44% | 1015 hPa | - | - | - | - |
| 1777764903 | 15.56° C | 44% | 1015 hPa | - | - | - | - |
| 1777763104 | 11.67° C | 54% | 1016 hPa | - | - | - | - |
| 1777761304 | 10.56° C | 53% | 1016 hPa | - | - | - | - |
| 1777759504 | 10.56° C | 53% | 1016 hPa | - | - | - | - |
| 1777757704 | 10.56° C | 53% | 1016 hPa | - | - | - | - |
| 1777755904 | 10.56° C | 50% | 1016 hPa | - | - | - | - |
| 1777754104 | 11.67° C | 46% | 1016 hPa | - | - | - | - |
* Rain since midnight (hover to see other rain measurements)
** Current wind speed in m/s (hover to see current wind gust speed)